sensor_id;sensor_type;location;lat;lon;timestamp;P1;durP1;ratioP1;P2;durP2;ratioP2
8628;SDS011;4352;49.404;11.092;2022-08-19T00:00:38;25.43;;;22.80;;
8628;SDS011;4352;49.404;11.092;2022-08-19T00:03:05;23.33;;;20.83;;
8628;SDS011;4352;49.404;11.092;2022-08-19T00:05:33;21.73;;;19.43;;
8628;SDS011;4352;49.404;11.092;2022-08-19T00:08:00;21.10;;;19.00;;
8628;SDS011;4352;49.404;11.092;2022-08-19T00:10:27;21.33;;;19.17;;
8628;SDS011;4352;49.404;11.092;2022-08-19T00:12:54;20.93;;;18.80;;
8628;SDS011;4352;49.404;11.092;2022-08-19T00:15:23;23.10;;;18.90;;
8628;SDS011;4352;49.404;11.092;2022-08-19T00:17:50;20.20;;;18.17;;
8628;SDS011;4352;49.404;11.092;2022-08-19T00:20:17;22.77;;;19.10;;
8628;SDS011;4352;49.404;11.092;2022-08-19T00:22:45;20.10;;;17.53;;
8628;SDS011;4352;49.404;11.092;2022-08-19T00:25:13;19.43;;;17.43;;
8628;SDS011;4352;49.404;11.092;2022-08-19T00:27:40;20.93;;;17.83;;
8628;SDS011;4352;49.404;11.092;2022-08-19T00:30:07;19.57;;;17.57;;
8628;SDS011;4352;49.404;11.092;2022-08-19T00:32:38;18.30;;;16.50;;
8628;SDS011;4352;49.404;11.092;2022-08-19T00:35:06;19.77;;;17.73;;
8628;SDS011;4352;49.404;11.092;2022-08-19T00:37:34;18.23;;;16.33;;
8628;SDS011;4352;49.404;11.092;2022-08-19T00:40:03;18.10;;;16.30;;
8628;SDS011;4352;49.404;11.092;2022-08-19T00:42:30;17.63;;;15.83;;
8628;SDS011;4352;49.404;11.092;2022-08-19T00:44:57;19.77;;;17.47;;
8628;SDS011;4352;49.404;11.092;2022-08-19T00:47:24;18.83;;;16.90;;
8628;SDS011;4352;49.404;11.092;2022-08-19T00:49:54;18.97;;;17.07;;
8628;SDS011;4352;49.404;11.092;2022-08-19T00:52:23;21.07;;;17.33;;
8628;SDS011;4352;49.404;11.092;2022-08-19T00:54:53;19.70;;;17.70;;
8628;SDS011;4352;49.404;11.092;2022-08-19T00:57:22;19.33;;;17.33;;
8628;SDS011;4352;49.404;11.092;2022-08-19T00:59:52;20.07;;;17.97;;
8628;SDS011;4352;49.404;11.092;2022-08-19T01:02:20;21.70;;;18.43;;
8628;SDS011;4352;49.404;11.092;2022-08-19T01:04:47;21.43;;;17.97;;
8628;SDS011;4352;49.404;11.092;2022-08-19T01:07:16;20.03;;;17.33;;
8628;SDS011;4352;49.404;11.092;2022-08-19T01:09:43;19.90;;;17.93;;
8628;SDS011;4352;49.404;11.092;2022-08-19T01:12:10;19.97;;;18.03;;
8628;SDS011;4352;49.404;11.092;2022-08-19T01:14:38;20.00;;;18.07;;
8628;SDS011;4352;49.404;11.092;2022-08-19T01:17:06;19.70;;;17.60;;
8628;SDS011;4352;49.404;11.092;2022-08-19T01:19:35;20.63;;;18.13;;
8628;SDS011;4352;49.404;11.092;2022-08-19T01:22:04;19.30;;;17.33;;
8628;SDS011;4352;49.404;11.092;2022-08-19T01:24:34;20.00;;;17.17;;
8628;SDS011;4352;49.404;11.092;2022-08-19T01:27:03;22.13;;;17.77;;
8628;SDS011;4352;49.404;11.092;2022-08-19T01:29:30;20.43;;;18.33;;
8628;SDS011;4352;49.404;11.092;2022-08-19T01:31:58;19.77;;;17.00;;
8628;SDS011;4352;49.404;11.092;2022-08-19T01:34:25;20.37;;;18.37;;
8628;SDS011;4352;49.404;11.092;2022-08-19T01:36:52;21.40;;;19.10;;
8628;SDS011;4352;49.404;11.092;2022-08-19T01:39:21;20.13;;;18.10;;
8628;SDS011;4352;49.404;11.092;2022-08-19T01:41:50;20.57;;;18.53;;
8628;SDS011;4352;49.404;11.092;2022-08-19T01:44:19;22.97;;;18.57;;
8628;SDS011;4352;49.404;11.092;2022-08-19T01:46:49;22.30;;;19.10;;
8628;SDS011;4352;49.404;11.092;2022-08-19T01:49:17;21.00;;;18.73;;
8628;SDS011;4352;49.404;11.092;2022-08-19T01:51:45;22.07;;;19.87;;
8628;SDS011;4352;49.404;11.092;2022-08-19T01:54:13;20.63;;;18.53;;
8628;SDS011;4352;49.404;11.092;2022-08-19T01:56:41;25.70;;;20.20;;
8628;SDS011;4352;49.404;11.092;2022-08-19T01:59:11;22.97;;;19.80;;
8628;SDS011;4352;49.404;11.092;2022-08-19T02:01:39;21.10;;;18.43;;
8628;SDS011;4352;49.404;11.092;2022-08-19T02:04:06;22.53;;;19.83;;
8628;SDS011;4352;49.404;11.092;2022-08-19T02:06:33;22.60;;;19.70;;
8628;SDS011;4352;49.404;11.092;2022-08-19T02:09:01;20.93;;;18.73;;
8628;SDS011;4352;49.404;11.092;2022-08-19T02:11:30;22.00;;;18.67;;
8628;SDS011;4352;49.404;11.092;2022-08-19T02:13:58;22.80;;;19.80;;
8628;SDS011;4352;49.404;11.092;2022-08-19T02:16:28;20.87;;;18.67;;
8628;SDS011;4352;49.404;11.092;2022-08-19T02:18:56;22.73;;;20.17;;
8628;SDS011;4352;49.404;11.092;2022-08-19T02:21:25;20.83;;;18.63;;
8628;SDS011;4352;49.404;11.092;2022-08-19T02:23:52;22.50;;;19.57;;
8628;SDS011;4352;49.404;11.092;2022-08-19T02:26:20;21.33;;;18.93;;
8628;SDS011;4352;49.404;11.092;2022-08-19T02:28:48;21.00;;;18.63;;
8628;SDS011;4352;49.404;11.092;2022-08-19T02:31:18;23.87;;;20.43;;
8628;SDS011;4352;49.404;11.092;2022-08-19T02:33:47;19.73;;;17.63;;
8628;SDS011;4352;49.404;11.092;2022-08-19T02:36:16;20.03;;;17.93;;
8628;SDS011;4352;49.404;11.092;2022-08-19T02:38:43;20.03;;;17.93;;
8628;SDS011;4352;49.404;11.092;2022-08-19T02:41:11;21.53;;;19.43;;
8628;SDS011;4352;49.404;11.092;2022-08-19T02:43:38;20.37;;;18.27;;
8628;SDS011;4352;49.404;11.092;2022-08-19T02:46:10;21.33;;;18.70;;
8628;SDS011;4352;49.404;11.092;2022-08-19T02:48:38;20.93;;;18.83;;
8628;SDS011;4352;49.404;11.092;2022-08-19T02:51:06;21.17;;;18.97;;
8628;SDS011;4352;49.404;11.092;2022-08-19T02:53:33;21.47;;;19.17;;
8628;SDS011;4352;49.404;11.092;2022-08-19T02:56:00;21.37;;;19.17;;
8628;SDS011;4352;49.404;11.092;2022-08-19T02:58:27;23.70;;;19.63;;
8628;SDS011;4352;49.404;11.092;2022-08-19T03:00:55;21.90;;;19.57;;
8628;SDS011;4352;49.404;11.092;2022-08-19T03:03:23;20.93;;;18.73;;
8628;SDS011;4352;49.404;11.092;2022-08-19T03:05:50;21.50;;;19.20;;
8628;SDS011;4352;49.404;11.092;2022-08-19T03:08:19;21.50;;;19.23;;
8628;SDS011;4352;49.404;11.092;2022-08-19T03:10:46;20.70;;;18.50;;
8628;SDS011;4352;49.404;11.092;2022-08-19T03:13:16;22.00;;;19.57;;
8628;SDS011;4352;49.404;11.092;2022-08-19T03:15:44;22.03;;;19.60;;
8628;SDS011;4352;49.404;11.092;2022-08-19T03:18:12;22.80;;;20.43;;
8628;SDS011;4352;49.404;11.092;2022-08-19T03:20:40;22.43;;;20.00;;
8628;SDS011;4352;49.404;11.092;2022-08-19T03:23:08;25.40;;;20.93;;
8628;SDS011;4352;49.404;11.092;2022-08-19T03:25:38;24.33;;;21.83;;
8628;SDS011;4352;49.404;11.092;2022-08-19T03:28:08;24.17;;;21.13;;
8628;SDS011;4352;49.404;11.092;2022-08-19T03:30:35;22.30;;;20.00;;
8628;SDS011;4352;49.404;11.092;2022-08-19T03:33:02;23.23;;;20.67;;
8628;SDS011;4352;49.404;11.092;2022-08-19T03:35:29;24.93;;;20.67;;
8628;SDS011;4352;49.404;11.092;2022-08-19T03:37:57;22.83;;;20.43;;
8628;SDS011;4352;49.404;11.092;2022-08-19T03:40:25;23.17;;;20.67;;
8628;SDS011;4352;49.404;11.092;2022-08-19T03:42:53;23.27;;;20.53;;
8628;SDS011;4352;49.404;11.092;2022-08-19T03:45:20;23.87;;;20.60;;
8628;SDS011;4352;49.404;11.092;2022-08-19T03:47:48;23.77;;;20.63;;
8628;SDS011;4352;49.404;11.092;2022-08-19T03:50:15;22.33;;;20.03;;
8628;SDS011;4352;49.404;11.092;2022-08-19T03:52:42;24.80;;;20.07;;
8628;SDS011;4352;49.404;11.092;2022-08-19T03:55:14;28.57;;;21.47;;
8628;SDS011;4352;49.404;11.092;2022-08-19T03:57:41;24.87;;;22.20;;
8628;SDS011;4352;49.404;11.092;2022-08-19T04:00:12;23.80;;;21.30;;
8628;SDS011;4352;49.404;11.092;2022-08-19T04:02:39;25.37;;;21.27;;
8628;SDS011;4352;49.404;11.092;2022-08-19T04:05:06;23.87;;;21.23;;
8628;SDS011;4352;49.404;11.092;2022-08-19T04:07:34;26.37;;;22.67;;
8628;SDS011;4352;49.404;11.092;2022-08-19T04:10:01;24.70;;;22.10;;
8628;SDS011;4352;49.404;11.092;2022-08-19T04:12:29;24.37;;;21.77;;
8628;SDS011;4352;49.404;11.092;2022-08-19T04:14:56;24.43;;;21.83;;
8628;SDS011;4352;49.404;11.092;2022-08-19T04:17:25;24.47;;;21.70;;
8628;SDS011;4352;49.404;11.092;2022-08-19T04:19:52;28.00;;;23.77;;
8628;SDS011;4352;49.404;11.092;2022-08-19T04:22:19;24.87;;;22.23;;
8628;SDS011;4352;49.404;11.092;2022-08-19T04:24:46;24.90;;;22.20;;
8628;SDS011;4352;49.404;11.092;2022-08-19T04:27:14;28.73;;;23.13;;
8628;SDS011;4352;49.404;11.092;2022-08-19T04:29:41;25.47;;;22.43;;
8628;SDS011;4352;49.404;11.092;2022-08-19T04:32:08;26.30;;;21.87;;
8628;SDS011;4352;49.404;11.092;2022-08-19T04:34:37;24.17;;;21.53;;
8628;SDS011;4352;49.404;11.092;2022-08-19T04:37:04;26.93;;;21.30;;
8628;SDS011;4352;49.404;11.092;2022-08-19T04:39:36;28.10;;;22.77;;
8628;SDS011;4352;49.404;11.092;2022-08-19T04:42:21;24.90;;;22.00;;
8628;SDS011;4352;49.404;11.092;2022-08-19T04:45:04;26.10;;;21.17;;
8628;SDS011;4352;49.404;11.092;2022-08-19T04:47:32;23.33;;;20.83;;
8628;SDS011;4352;49.404;11.092;2022-08-19T04:50:00;25.63;;;21.97;;
8628;SDS011;4352;49.404;11.092;2022-08-19T04:52:27;26.00;;;22.10;;
8628;SDS011;4352;49.404;11.092;2022-08-19T04:54:57;23.93;;;21.40;;
8628;SDS011;4352;49.404;11.092;2022-08-19T04:57:24;23.83;;;21.17;;
8628;SDS011;4352;49.404;11.092;2022-08-19T04:59:53;24.37;;;21.73;;
8628;SDS011;4352;49.404;11.092;2022-08-19T05:02:21;27.27;;;22.13;;
8628;SDS011;4352;49.404;11.092;2022-08-19T05:04:50;27.03;;;21.40;;
8628;SDS011;4352;49.404;11.092;2022-08-19T05:07:18;28.47;;;21.03;;
8628;SDS011;4352;49.404;11.092;2022-08-19T05:09:46;25.90;;;20.77;;
8628;SDS011;4352;49.404;11.092;2022-08-19T05:12:13;24.57;;;20.97;;
8628;SDS011;4352;49.404;11.092;2022-08-19T05:14:40;22.87;;;20.33;;
8628;SDS011;4352;49.404;11.092;2022-08-19T05:17:07;25.77;;;21.73;;
8628;SDS011;4352;49.404;11.092;2022-08-19T05:19:34;25.27;;;21.77;;
8628;SDS011;4352;49.404;11.092;2022-08-19T05:22:20;22.67;;;20.27;;
8628;SDS011;4352;49.404;11.092;2022-08-19T05:25:01;26.50;;;21.07;;
8628;SDS011;4352;49.404;11.092;2022-08-19T05:27:28;23.97;;;21.47;;
8628;SDS011;4352;49.404;11.092;2022-08-19T05:29:56;26.53;;;21.77;;
8628;SDS011;4352;49.404;11.092;2022-08-19T05:32:23;23.17;;;20.87;;
8628;SDS011;4352;49.404;11.092;2022-08-19T05:34:50;26.60;;;20.27;;
8628;SDS011;4352;49.404;11.092;2022-08-19T05:37:17;21.13;;;18.90;;
8628;SDS011;4352;49.404;11.092;2022-08-19T05:39:45;22.13;;;19.83;;
8628;SDS011;4352;49.404;11.092;2022-08-19T05:42:14;20.37;;;18.17;;
8628;SDS011;4352;49.404;11.092;2022-08-19T05:44:42;21.60;;;19.40;;
8628;SDS011;4352;49.404;11.092;2022-08-19T05:47:10;22.87;;;19.70;;
8628;SDS011;4352;49.404;11.092;2022-08-19T05:49:37;25.43;;;19.03;;
8628;SDS011;4352;49.404;11.092;2022-08-19T05:52:05;22.13;;;19.47;;
8628;SDS011;4352;49.404;11.092;2022-08-19T05:54:33;21.60;;;19.37;;
8628;SDS011;4352;49.404;11.092;2022-08-19T05:57:02;20.23;;;18.00;;
8628;SDS011;4352;49.404;11.092;2022-08-19T05:59:29;20.27;;;18.17;;
8628;SDS011;4352;49.404;11.092;2022-08-19T06:01:56;19.47;;;17.40;;
8628;SDS011;4352;49.404;11.092;2022-08-19T06:04:25;18.13;;;16.23;;
8628;SDS011;4352;49.404;11.092;2022-08-19T06:06:53;18.33;;;16.43;;
8628;SDS011;4352;49.404;11.092;2022-08-19T06:09:21;19.77;;;17.33;;
8628;SDS011;4352;49.404;11.092;2022-08-19T06:11:50;17.83;;;15.93;;
8628;SDS011;4352;49.404;11.092;2022-08-19T06:14:20;18.60;;;15.90;;
8628;SDS011;4352;49.404;11.092;2022-08-19T06:16:49;17.80;;;15.50;;
8628;SDS011;4352;49.404;11.092;2022-08-19T06:19:17;17.40;;;15.43;;
8628;SDS011;4352;49.404;11.092;2022-08-19T06:21:45;17.20;;;15.40;;
8628;SDS011;4352;49.404;11.092;2022-08-19T06:24:14;19.27;;;16.23;;
8628;SDS011;4352;49.404;11.092;2022-08-19T06:26:42;19.03;;;16.20;;
8628;SDS011;4352;49.404;11.092;2022-08-19T06:29:11;18.77;;;16.50;;
8628;SDS011;4352;49.404;11.092;2022-08-19T06:31:42;18.23;;;16.30;;
8628;SDS011;4352;49.404;11.092;2022-08-19T06:34:09;18.17;;;15.83;;
8628;SDS011;4352;49.404;11.092;2022-08-19T06:36:37;25.10;;;19.80;;
8628;SDS011;4352;49.404;11.092;2022-08-19T06:39:08;25.03;;;19.87;;
8628;SDS011;4352;49.404;11.092;2022-08-19T06:41:36;20.50;;;18.33;;
8628;SDS011;4352;49.404;11.092;2022-08-19T06:44:03;20.57;;;18.03;;
8628;SDS011;4352;49.404;11.092;2022-08-19T06:46:31;21.73;;;18.67;;
8628;SDS011;4352;49.404;11.092;2022-08-19T06:48:59;20.60;;;18.33;;
8628;SDS011;4352;49.404;11.092;2022-08-19T06:51:26;23.13;;;18.57;;
8628;SDS011;4352;49.404;11.092;2022-08-19T06:53:54;19.63;;;17.30;;
8628;SDS011;4352;49.404;11.092;2022-08-19T06:56:22;19.93;;;17.57;;
8628;SDS011;4352;49.404;11.092;2022-08-19T06:58:51;20.67;;;17.03;;
8628;SDS011;4352;49.404;11.092;2022-08-19T07:01:18;21.70;;;18.30;;
8628;SDS011;4352;49.404;11.092;2022-08-19T07:03:45;20.10;;;17.77;;
8628;SDS011;4352;49.404;11.092;2022-08-19T07:06:15;18.67;;;16.13;;
8628;SDS011;4352;49.404;11.092;2022-08-19T07:08:42;17.30;;;15.50;;
8628;SDS011;4352;49.404;11.092;2022-08-19T07:11:11;16.47;;;14.07;;
8628;SDS011;4352;49.404;11.092;2022-08-19T07:13:39;15.13;;;13.33;;
8628;SDS011;4352;49.404;11.092;2022-08-19T07:16:09;15.80;;;13.03;;
8628;SDS011;4352;49.404;11.092;2022-08-19T07:18:36;15.63;;;14.13;;
8628;SDS011;4352;49.404;11.092;2022-08-19T07:21:04;14.80;;;13.30;;
8628;SDS011;4352;49.404;11.092;2022-08-19T07:23:33;14.77;;;13.23;;
8628;SDS011;4352;49.404;11.092;2022-08-19T07:26:05;15.27;;;13.07;;
8628;SDS011;4352;49.404;11.092;2022-08-19T07:28:33;14.20;;;12.70;;
8628;SDS011;4352;49.404;11.092;2022-08-19T07:31:00;14.00;;;12.20;;
8628;SDS011;4352;49.404;11.092;2022-08-19T07:33:28;15.30;;;13.70;;
8628;SDS011;4352;49.404;11.092;2022-08-19T07:35:57;13.13;;;11.83;;
8628;SDS011;4352;49.404;11.092;2022-08-19T07:38:24;16.37;;;12.10;;
8628;SDS011;4352;49.404;11.092;2022-08-19T07:40:53;12.30;;;11.13;;
8628;SDS011;4352;49.404;11.092;2022-08-19T07:43:20;15.23;;;12.17;;
8628;SDS011;4352;49.404;11.092;2022-08-19T07:45:50;11.73;;;10.60;;
8628;SDS011;4352;49.404;11.092;2022-08-19T07:48:21;11.77;;;10.70;;
8628;SDS011;4352;49.404;11.092;2022-08-19T07:50:49;12.10;;;10.90;;
8628;SDS011;4352;49.404;11.092;2022-08-19T07:53:17;12.17;;;10.97;;
8628;SDS011;4352;49.404;11.092;2022-08-19T07:55:44;13.27;;;10.80;;
8628;SDS011;4352;49.404;11.092;2022-08-19T07:58:14;11.93;;;10.73;;
8628;SDS011;4352;49.404;11.092;2022-08-19T08:00:42;11.57;;;10.33;;
8628;SDS011;4352;49.404;11.092;2022-08-19T08:03:09;12.23;;;10.87;;
8628;SDS011;4352;49.404;11.092;2022-08-19T08:05:37;12.57;;;10.77;;
8628;SDS011;4352;49.404;11.092;2022-08-19T08:08:22;12.93;;;11.63;;
8628;SDS011;4352;49.404;11.092;2022-08-19T08:11:07;12.53;;;11.23;;
8628;SDS011;4352;49.404;11.092;2022-08-19T08:13:37;14.33;;;12.30;;
8628;SDS011;4352;49.404;11.092;2022-08-19T08:16:06;15.37;;;12.97;;
8628;SDS011;4352;49.404;11.092;2022-08-19T08:18:34;14.80;;;13.30;;
8628;SDS011;4352;49.404;11.092;2022-08-19T08:21:06;13.77;;;12.37;;
8628;SDS011;4352;49.404;11.092;2022-08-19T08:23:33;13.73;;;12.33;;
8628;SDS011;4352;49.404;11.092;2022-08-19T08:26:01;13.87;;;12.00;;
8628;SDS011;4352;49.404;11.092;2022-08-19T08:28:29;13.10;;;11.40;;
8628;SDS011;4352;49.404;11.092;2022-08-19T08:30:58;14.77;;;12.67;;
8628;SDS011;4352;49.404;11.092;2022-08-19T08:33:26;13.97;;;12.57;;
8628;SDS011;4352;49.404;11.092;2022-08-19T08:35:53;18.40;;;13.27;;
8628;SDS011;4352;49.404;11.092;2022-08-19T08:38:20;15.90;;;12.97;;
8628;SDS011;4352;49.404;11.092;2022-08-19T08:40:48;16.30;;;13.07;;
8628;SDS011;4352;49.404;11.092;2022-08-19T08:43:21;14.23;;;12.73;;
8628;SDS011;4352;49.404;11.092;2022-08-19T08:45:52;12.93;;;11.53;;
8628;SDS011;4352;49.404;11.092;2022-08-19T08:48:24;12.83;;;11.53;;
8628;SDS011;4352;49.404;11.092;2022-08-19T08:50:52;13.70;;;12.23;;
8628;SDS011;4352;49.404;11.092;2022-08-19T08:53:21;13.20;;;11.87;;
8628;SDS011;4352;49.404;11.092;2022-08-19T08:55:48;12.90;;;11.67;;
8628;SDS011;4352;49.404;11.092;2022-08-19T08:58:17;14.37;;;11.83;;
8628;SDS011;4352;49.404;11.092;2022-08-19T09:00:48;16.23;;;12.10;;
8628;SDS011;4352;49.404;11.092;2022-08-19T09:03:16;14.87;;;11.63;;
8628;SDS011;4352;49.404;11.092;2022-08-19T09:05:48;17.60;;;15.30;;
8628;SDS011;4352;49.404;11.092;2022-08-19T09:08:19;21.03;;;17.93;;
8628;SDS011;4352;49.404;11.092;2022-08-19T09:10:51;30.00;;;19.33;;
8628;SDS011;4352;49.404;11.092;2022-08-19T09:13:21;24.93;;;20.50;;
8628;SDS011;4352;49.404;11.092;2022-08-19T09:15:57;22.83;;;20.30;;
8628;SDS011;4352;49.404;11.092;2022-08-19T09:18:26;26.97;;;21.50;;
8628;SDS011;4352;49.404;11.092;2022-08-19T09:20:54;27.90;;;21.30;;
8628;SDS011;4352;49.404;11.092;2022-08-19T09:23:22;24.83;;;21.17;;
8628;SDS011;4352;49.404;11.092;2022-08-19T09:25:49;27.80;;;22.97;;
8628;SDS011;4352;49.404;11.092;2022-08-19T09:28:16;28.37;;;22.93;;
8628;SDS011;4352;49.404;11.092;2022-08-19T09:30:43;25.90;;;21.50;;
8628;SDS011;4352;49.404;11.092;2022-08-19T09:33:11;26.47;;;22.40;;
8628;SDS011;4352;49.404;11.092;2022-08-19T09:35:38;29.63;;;24.53;;
8628;SDS011;4352;49.404;11.092;2022-08-19T09:38:06;30.93;;;25.30;;
8628;SDS011;4352;49.404;11.092;2022-08-19T09:40:33;26.93;;;23.70;;
8628;SDS011;4352;49.404;11.092;2022-08-19T09:43:01;25.33;;;22.57;;
8628;SDS011;4352;49.404;11.092;2022-08-19T09:45:29;21.87;;;19.27;;
8628;SDS011;4352;49.404;11.092;2022-08-19T09:47:56;23.57;;;20.53;;
8628;SDS011;4352;49.404;11.092;2022-08-19T09:50:23;21.20;;;17.53;;
8628;SDS011;4352;49.404;11.092;2022-08-19T09:52:51;20.00;;;17.83;;
8628;SDS011;4352;49.404;11.092;2022-08-19T09:55:23;20.57;;;17.93;;
8628;SDS011;4352;49.404;11.092;2022-08-19T09:57:50;20.80;;;18.37;;
8628;SDS011;4352;49.404;11.092;2022-08-19T10:00:20;24.43;;;18.43;;
8628;SDS011;4352;49.404;11.092;2022-08-19T10:02:47;22.00;;;18.73;;
8628;SDS011;4352;49.404;11.092;2022-08-19T10:05:14;21.47;;;18.27;;
8628;SDS011;4352;49.404;11.092;2022-08-19T10:07:59;22.67;;;18.63;;
8628;SDS011;4352;49.404;11.092;2022-08-19T10:10:29;21.13;;;18.70;;
8628;SDS011;4352;49.404;11.092;2022-08-19T10:12:56;24.37;;;20.13;;
8628;SDS011;4352;49.404;11.092;2022-08-19T10:15:23;22.70;;;18.53;;
8628;SDS011;4352;49.404;11.092;2022-08-19T10:17:50;22.97;;;18.87;;
8628;SDS011;4352;49.404;11.092;2022-08-19T10:20:18;23.63;;;20.13;;
8628;SDS011;4352;49.404;11.092;2022-08-19T10:22:45;23.73;;;20.03;;
8628;SDS011;4352;49.404;11.092;2022-08-19T10:25:12;31.07;;;19.33;;
8628;SDS011;4352;49.404;11.092;2022-08-19T10:27:43;22.90;;;20.03;;
8628;SDS011;4352;49.404;11.092;2022-08-19T10:30:11;23.07;;;19.73;;
8628;SDS011;4352;49.404;11.092;2022-08-19T10:32:38;27.30;;;20.27;;
8628;SDS011;4352;49.404;11.092;2022-08-19T10:35:06;25.53;;;20.07;;
8628;SDS011;4352;49.404;11.092;2022-08-19T10:37:33;26.23;;;20.07;;
8628;SDS011;4352;49.404;11.092;2022-08-19T10:40:02;23.83;;;19.67;;
8628;SDS011;4352;49.404;11.092;2022-08-19T10:42:30;28.67;;;21.27;;
8628;SDS011;4352;49.404;11.092;2022-08-19T10:44:59;25.97;;;19.53;;
8628;SDS011;4352;49.404;11.092;2022-08-19T10:47:26;22.93;;;20.03;;
8628;SDS011;4352;49.404;11.092;2022-08-19T10:49:53;24.03;;;19.57;;
8628;SDS011;4352;49.404;11.092;2022-08-19T10:52:38;27.87;;;20.47;;
8628;SDS011;4352;49.404;11.092;2022-08-19T10:55:06;26.83;;;20.20;;
8628;SDS011;4352;49.404;11.092;2022-08-19T10:57:51;22.07;;;19.10;;
8628;SDS011;4352;49.404;11.092;2022-08-19T11:00:20;24.93;;;18.73;;
8628;SDS011;4352;49.404;11.092;2022-08-19T11:02:47;21.87;;;19.17;;
8628;SDS011;4352;49.404;11.092;2022-08-19T11:05:15;23.47;;;18.30;;
8628;SDS011;4352;49.404;11.092;2022-08-19T11:07:42;26.30;;;19.53;;
8628;SDS011;4352;49.404;11.092;2022-08-19T11:10:11;25.97;;;19.63;;
8628;SDS011;4352;49.404;11.092;2022-08-19T11:12:38;24.57;;;19.73;;
8628;SDS011;4352;49.404;11.092;2022-08-19T11:15:06;22.80;;;18.90;;
8628;SDS011;4352;49.404;11.092;2022-08-19T11:17:37;24.03;;;18.03;;
8628;SDS011;4352;49.404;11.092;2022-08-19T11:20:08;22.93;;;19.20;;
8628;SDS011;4352;49.404;11.092;2022-08-19T11:22:36;22.43;;;19.70;;
8628;SDS011;4352;49.404;11.092;2022-08-19T11:25:03;22.97;;;19.30;;
8628;SDS011;4352;49.404;11.092;2022-08-19T11:27:30;21.07;;;18.80;;
8628;SDS011;4352;49.404;11.092;2022-08-19T11:29:58;19.03;;;16.80;;
8628;SDS011;4352;49.404;11.092;2022-08-19T11:32:28;22.13;;;18.93;;
8628;SDS011;4352;49.404;11.092;2022-08-19T11:34:56;25.43;;;19.67;;
8628;SDS011;4352;49.404;11.092;2022-08-19T11:37:24;24.13;;;20.87;;
8628;SDS011;4352;49.404;11.092;2022-08-19T11:39:51;22.70;;;20.30;;
8628;SDS011;4352;49.404;11.092;2022-08-19T11:42:19;21.60;;;19.33;;
8628;SDS011;4352;49.404;11.092;2022-08-19T11:45:03;25.53;;;19.97;;
8628;SDS011;4352;49.404;11.092;2022-08-19T11:47:31;23.43;;;20.90;;
8628;SDS011;4352;49.404;11.092;2022-08-19T11:49:59;25.23;;;20.90;;
8628;SDS011;4352;49.404;11.092;2022-08-19T11:52:26;21.83;;;19.53;;
8628;SDS011;4352;49.404;11.092;2022-08-19T11:54:54;21.50;;;19.30;;
8628;SDS011;4352;49.404;11.092;2022-08-19T11:57:21;21.13;;;18.73;;
8628;SDS011;4352;49.404;11.092;2022-08-19T11:59:49;24.47;;;20.77;;
8628;SDS011;4352;49.404;11.092;2022-08-19T12:02:16;20.17;;;17.97;;
8628;SDS011;4352;49.404;11.092;2022-08-19T12:04:44;26.40;;;21.03;;
8628;SDS011;4352;49.404;11.092;2022-08-19T12:07:12;26.00;;;21.90;;
8628;SDS011;4352;49.404;11.092;2022-08-19T12:09:39;26.27;;;21.03;;
8628;SDS011;4352;49.404;11.092;2022-08-19T12:12:07;27.13;;;22.00;;
8628;SDS011;4352;49.404;11.092;2022-08-19T12:14:35;26.10;;;21.70;;
8628;SDS011;4352;49.404;11.092;2022-08-19T12:17:02;25.33;;;22.17;;
8628;SDS011;4352;49.404;11.092;2022-08-19T12:19:31;27.80;;;21.40;;
8628;SDS011;4352;49.404;11.092;2022-08-19T12:21:59;24.40;;;20.43;;
8628;SDS011;4352;49.404;11.092;2022-08-19T12:24:30;26.83;;;22.87;;
8628;SDS011;4352;49.404;11.092;2022-08-19T12:26:59;26.80;;;22.40;;
8628;SDS011;4352;49.404;11.092;2022-08-19T12:29:27;23.97;;;21.40;;
8628;SDS011;4352;49.404;11.092;2022-08-19T12:31:54;31.20;;;22.73;;
8628;SDS011;4352;49.404;11.092;2022-08-19T12:34:25;29.30;;;23.73;;
8628;SDS011;4352;49.404;11.092;2022-08-19T12:36:54;28.63;;;23.07;;
8628;SDS011;4352;49.404;11.092;2022-08-19T12:39:21;26.97;;;23.07;;
8628;SDS011;4352;49.404;11.092;2022-08-19T12:41:50;28.47;;;22.83;;
8628;SDS011;4352;49.404;11.092;2022-08-19T12:44:18;30.37;;;24.10;;
8628;SDS011;4352;49.404;11.092;2022-08-19T12:46:46;27.83;;;24.00;;
8628;SDS011;4352;49.404;11.092;2022-08-19T12:49:14;26.50;;;23.53;;
8628;SDS011;4352;49.404;11.092;2022-08-19T12:51:41;29.13;;;24.53;;
8628;SDS011;4352;49.404;11.092;2022-08-19T12:54:08;32.37;;;23.37;;
8628;SDS011;4352;49.404;11.092;2022-08-19T12:56:36;27.40;;;23.50;;
8628;SDS011;4352;49.404;11.092;2022-08-19T12:59:04;28.67;;;24.03;;
8628;SDS011;4352;49.404;11.092;2022-08-19T13:01:33;30.90;;;23.97;;
8628;SDS011;4352;49.404;11.092;2022-08-19T13:04:00;28.00;;;23.67;;
8628;SDS011;4352;49.404;11.092;2022-08-19T13:06:27;26.10;;;21.77;;
8628;SDS011;4352;49.404;11.092;2022-08-19T13:08:55;25.23;;;22.57;;
8628;SDS011;4352;49.404;11.092;2022-08-19T13:11:22;25.47;;;21.57;;
8628;SDS011;4352;49.404;11.092;2022-08-19T13:13:50;25.70;;;22.03;;
8628;SDS011;4352;49.404;11.092;2022-08-19T13:16:20;24.63;;;22.00;;
8628;SDS011;4352;49.404;11.092;2022-08-19T13:18:47;23.90;;;21.23;;
8628;SDS011;4352;49.404;11.092;2022-08-19T13:21:17;27.13;;;22.90;;
8628;SDS011;4352;49.404;11.092;2022-08-19T13:23:45;28.00;;;23.33;;
8628;SDS011;4352;49.404;11.092;2022-08-19T13:26:13;25.37;;;22.43;;
8628;SDS011;4352;49.404;11.092;2022-08-19T13:28:40;26.60;;;22.13;;
8628;SDS011;4352;49.404;11.092;2022-08-19T13:31:27;26.03;;;22.80;;
8628;SDS011;4352;49.404;11.092;2022-08-19T13:34:12;29.60;;;24.10;;
8628;SDS011;4352;49.404;11.092;2022-08-19T13:36:40;26.53;;;23.57;;
8628;SDS011;4352;49.404;11.092;2022-08-19T13:39:07;28.00;;;24.47;;
8628;SDS011;4352;49.404;11.092;2022-08-19T13:41:35;28.13;;;25.17;;
8628;SDS011;4352;49.404;11.092;2022-08-19T13:44:02;30.37;;;24.17;;
8628;SDS011;4352;49.404;11.092;2022-08-19T13:46:32;30.20;;;25.57;;
8628;SDS011;4352;49.404;11.092;2022-08-19T13:48:59;27.77;;;24.77;;
8628;SDS011;4352;49.404;11.092;2022-08-19T13:51:26;33.27;;;27.20;;
8628;SDS011;4352;49.404;11.092;2022-08-19T13:53:53;28.17;;;24.90;;
8628;SDS011;4352;49.404;11.092;2022-08-19T13:56:20;29.80;;;25.07;;
8628;SDS011;4352;49.404;11.092;2022-08-19T13:58:47;29.40;;;26.17;;
8628;SDS011;4352;49.404;11.092;2022-08-19T14:01:18;29.30;;;25.13;;
8628;SDS011;4352;49.404;11.092;2022-08-19T14:03:47;31.57;;;26.47;;
8628;SDS011;4352;49.404;11.092;2022-08-19T14:06:14;28.80;;;25.70;;
8628;SDS011;4352;49.404;11.092;2022-08-19T14:08:41;29.23;;;24.67;;
8628;SDS011;4352;49.404;11.092;2022-08-19T14:11:09;28.93;;;25.80;;
8628;SDS011;4352;49.404;11.092;2022-08-19T14:13:36;29.27;;;26.00;;
8628;SDS011;4352;49.404;11.092;2022-08-19T14:16:06;28.33;;;25.30;;
8628;SDS011;4352;49.404;11.092;2022-08-19T14:18:33;28.90;;;22.93;;
8628;SDS011;4352;49.404;11.092;2022-08-19T14:21:02;26.97;;;22.83;;
8628;SDS011;4352;49.404;11.092;2022-08-19T14:23:29;27.97;;;21.97;;
8628;SDS011;4352;49.404;11.092;2022-08-19T14:26:02;23.47;;;20.97;;
8628;SDS011;4352;49.404;11.092;2022-08-19T14:28:29;23.23;;;20.63;;
8628;SDS011;4352;49.404;11.092;2022-08-19T14:30:56;24.13;;;20.83;;
8628;SDS011;4352;49.404;11.092;2022-08-19T14:33:24;23.60;;;19.27;;
8628;SDS011;4352;49.404;11.092;2022-08-19T14:35:51;22.53;;;19.20;;
8628;SDS011;4352;49.404;11.092;2022-08-19T14:38:19;19.00;;;16.93;;
8628;SDS011;4352;49.404;11.092;2022-08-19T14:40:46;17.50;;;15.60;;